sensor_id;sensor_type;location;lat;lon;timestamp;P1;P2;P0
54553;PMS5003;40450;55.848;-3.572;2024-01-06T00:00:04;3;3;
54553;PMS5003;40450;55.848;-3.572;2024-01-06T00:02:29;2;2;
54553;PMS5003;40450;55.848;-3.572;2024-01-06T00:04:54;5;2;
54553;PMS5003;40450;55.848;-3.572;2024-01-06T00:07:20;3;3;
54553;PMS5003;40450;55.848;-3.572;2024-01-06T00:09:50;4;4;
54553;PMS5003;40450;55.848;-3.572;2024-01-06T00:12:18;7;6;
54553;PMS5003;40450;55.848;-3.572;2024-01-06T00:14:41;5;3;
54553;PMS5003;40450;55.848;-3.572;2024-01-06T00:17:07;4;4;
54553;PMS5003;40450;55.848;-3.572;2024-01-06T00:19:31;4;4;
54553;PMS5003;40450;55.848;-3.572;2024-01-06T00:21:51;2;2;
54553;PMS5003;40450;55.848;-3.572;2024-01-06T00:24:24;4;4;
54553;PMS5003;40450;55.848;-3.572;2024-01-06T00:26:47;3;3;
54553;PMS5003;40450;55.848;-3.572;2024-01-06T00:29:12;4;2;
54553;PMS5003;40450;55.848;-3.572;2024-01-06T00:31:32;3;3;
54553;PMS5003;40450;55.848;-3.572;2024-01-06T00:33:58;3;3;
54553;PMS5003;40450;55.848;-3.572;2024-01-06T00:36:28;3;3;
54553;PMS5003;40450;55.848;-3.572;2024-01-06T00:38:53;2;2;
54553;PMS5003;40450;55.848;-3.572;2024-01-06T00:41:18;1;1;
54553;PMS5003;40450;55.848;-3.572;2024-01-06T00:43:44;1;1;
54553;PMS5003;40450;55.848;-3.572;2024-01-06T00:46:12;3;3;
54553;PMS5003;40450;55.848;-3.572;2024-01-06T00:48:30;7;6;
54553;PMS5003;40450;55.848;-3.572;2024-01-06T00:51:01;3;1;
54553;PMS5003;40450;55.848;-3.572;2024-01-06T00:53:26;1;1;
54553;PMS5003;40450;55.848;-3.572;2024-01-06T00:55:52;2;2;
54553;PMS5003;40450;55.848;-3.572;2024-01-06T00:58:12;0;0;
54553;PMS5003;40450;55.848;-3.572;2024-01-06T01:00:45;1;1;
54553;PMS5003;40450;55.848;-3.572;2024-01-06T01:03:07;1;1;
54553;PMS5003;40450;55.848;-3.572;2024-01-06T01:05:28;1;1;
54553;PMS5003;40450;55.848;-3.572;2024-01-06T01:07:58;3;1;
54553;PMS5003;40450;55.848;-3.572;2024-01-06T01:10:26;1;1;
54553;PMS5003;40450;55.848;-3.572;2024-01-06T01:12:49;1;1;
54553;PMS5003;40450;55.848;-3.572;2024-01-06T01:15:17;1;1;
54553;PMS5003;40450;55.848;-3.572;2024-01-06T01:17:39;2;2;
54553;PMS5003;40450;55.848;-3.572;2024-01-06T01:20:05;4;2;
54553;PMS5003;40450;55.848;-3.572;2024-01-06T01:22:30;3;3;
54553;PMS5003;40450;55.848;-3.572;2024-01-06T01:24:55;2;2;
54553;PMS5003;40450;55.848;-3.572;2024-01-06T01:27:20;1;1;
54553;PMS5003;40450;55.848;-3.572;2024-01-06T01:29:45;1;1;
54553;PMS5003;40450;55.848;-3.572;2024-01-06T01:32:06;4;1;
54553;PMS5003;40450;55.848;-3.572;2024-01-06T01:34:36;4;2;
54553;PMS5003;40450;55.848;-3.572;2024-01-06T01:37:04;1;1;
54553;PMS5003;40450;55.848;-3.572;2024-01-06T01:39:22;3;2;
54553;PMS5003;40450;55.848;-3.572;2024-01-06T01:41:52;3;1;
54553;PMS5003;40450;55.848;-3.572;2024-01-06T01:44:12;0;0;
54553;PMS5003;40450;55.848;-3.572;2024-01-06T01:46:42;2;2;
54553;PMS5003;40450;55.848;-3.572;2024-01-06T01:49:08;1;1;
54553;PMS5003;40450;55.848;-3.572;2024-01-06T01:51:28;2;2;
54553;PMS5003;40450;55.848;-3.572;2024-01-06T01:53:53;3;3;
54553;PMS5003;40450;55.848;-3.572;2024-01-06T01:56:18;4;4;
54553;PMS5003;40450;55.848;-3.572;2024-01-06T01:58:44;2;2;
54553;PMS5003;40450;55.848;-3.572;2024-01-06T02:01:09;2;2;
54553;PMS5003;40450;55.848;-3.572;2024-01-06T02:03:38;2;2;
54553;PMS5003;40450;55.848;-3.572;2024-01-06T02:06:01;1;1;
54553;PMS5003;40450;55.848;-3.572;2024-01-06T02:08:32;3;1;
54553;PMS5003;40450;55.848;-3.572;2024-01-06T02:10:56;2;2;
54553;PMS5003;40450;55.848;-3.572;2024-01-06T02:13:16;2;2;
54553;PMS5003;40450;55.848;-3.572;2024-01-06T02:15:47;2;2;
54553;PMS5003;40450;55.848;-3.572;2024-01-06T02:18:12;1;1;
54553;PMS5003;40450;55.848;-3.572;2024-01-06T02:20:46;1;1;
54553;PMS5003;40450;55.848;-3.572;2024-01-06T02:22:58;2;2;
54553;PMS5003;40450;55.848;-3.572;2024-01-06T02:25:23;2;2;
54553;PMS5003;40450;55.848;-3.572;2024-01-06T02:27:48;2;2;
54553;PMS5003;40450;55.848;-3.572;2024-01-06T02:30:23;1;1;
54553;PMS5003;40450;55.848;-3.572;2024-01-06T02:32:43;3;3;
54553;PMS5003;40450;55.848;-3.572;2024-01-06T02:35:09;2;1;
54553;PMS5003;40450;55.848;-3.572;2024-01-06T02:37:29;4;4;
54553;PMS5003;40450;55.848;-3.572;2024-01-06T02:39:54;6;3;
54553;PMS5003;40450;55.848;-3.572;2024-01-06T02:42:19;4;4;
54553;PMS5003;40450;55.848;-3.572;2024-01-06T02:44:45;6;6;
54553;PMS5003;40450;55.848;-3.572;2024-01-06T02:47:10;4;4;
54553;PMS5003;40450;55.848;-3.572;2024-01-06T02:49:35;6;4;
54553;PMS5003;40450;55.848;-3.572;2024-01-06T02:52:01;5;5;
54553;PMS5003;40450;55.848;-3.572;2024-01-06T02:54:26;2;2;
54553;PMS5003;40450;55.848;-3.572;2024-01-06T02:56:51;2;2;
54553;PMS5003;40450;55.848;-3.572;2024-01-06T02:59:21;2;2;
54553;PMS5003;40450;55.848;-3.572;2024-01-06T03:01:42;2;2;
54553;PMS5003;40450;55.848;-3.572;2024-01-06T03:04:07;2;2;
54553;PMS5003;40450;55.848;-3.572;2024-01-06T03:06:32;4;3;
54553;PMS5003;40450;55.848;-3.572;2024-01-06T03:08:57;2;2;
54553;PMS5003;40450;55.848;-3.572;2024-01-06T03:11:23;2;2;
54553;PMS5003;40450;55.848;-3.572;2024-01-06T03:13:48;2;2;
54553;PMS5003;40450;55.848;-3.572;2024-01-06T03:16:15;2;2;
54553;PMS5003;40450;55.848;-3.572;2024-01-06T03:18:44;2;2;
54553;PMS5003;40450;55.848;-3.572;2024-01-06T03:23:29;2;2;
54553;PMS5003;40450;55.848;-3.572;2024-01-06T03:28:20;1;1;
54553;PMS5003;40450;55.848;-3.572;2024-01-06T03:30:45;1;1;
54553;PMS5003;40450;55.848;-3.572;2024-01-06T03:33:10;1;1;
54553;PMS5003;40450;55.848;-3.572;2024-01-06T03:35:41;1;1;
54553;PMS5003;40450;55.848;-3.572;2024-01-06T03:38:01;1;1;
54553;PMS5003;40450;55.848;-3.572;2024-01-06T03:40:26;1;1;
54553;PMS5003;40450;55.848;-3.572;2024-01-06T03:42:51;0;0;
54553;PMS5003;40450;55.848;-3.572;2024-01-06T03:45:17;1;1;
54553;PMS5003;40450;55.848;-3.572;2024-01-06T03:47:42;0;0;
54553;PMS5003;40450;55.848;-3.572;2024-01-06T03:50:12;2;1;
54553;PMS5003;40450;55.848;-3.572;2024-01-06T03:52:34;1;1;
54553;PMS5003;40450;55.848;-3.572;2024-01-06T03:55:03;1;1;
54553;PMS5003;40450;55.848;-3.572;2024-01-06T03:57:28;0;0;
54553;PMS5003;40450;55.848;-3.572;2024-01-06T03:59:48;2;0;
54553;PMS5003;40450;55.848;-3.572;2024-01-06T04:02:18;1;1;
54553;PMS5003;40450;55.848;-3.572;2024-01-06T04:04:44;0;0;
54553;PMS5003;40450;55.848;-3.572;2024-01-06T04:09:29;0;0;
54553;PMS5003;40450;55.848;-3.572;2024-01-06T04:12:01;5;1;
54553;PMS5003;40450;55.848;-3.572;2024-01-06T04:14:20;3;2;
54553;PMS5003;40450;55.848;-3.572;2024-01-06T04:16:50;3;2;
54553;PMS5003;40450;55.848;-3.572;2024-01-06T04:19:16;1;1;
54553;PMS5003;40450;55.848;-3.572;2024-01-06T04:21:36;1;1;
54553;PMS5003;40450;55.848;-3.572;2024-01-06T04:24:01;2;2;
54553;PMS5003;40450;55.848;-3.572;2024-01-06T04:26:27;2;1;
54553;PMS5003;40450;55.848;-3.572;2024-01-06T04:28:52;1;1;
54553;PMS5003;40450;55.848;-3.572;2024-01-06T04:31:22;1;1;
54553;PMS5003;40450;55.848;-3.572;2024-01-06T04:33:50;0;0;
54553;PMS5003;40450;55.848;-3.572;2024-01-06T04:36:15;1;1;
54553;PMS5003;40450;55.848;-3.572;2024-01-06T04:38:38;0;0;
54553;PMS5003;40450;55.848;-3.572;2024-01-06T04:41:06;3;1;
54553;PMS5003;40450;55.848;-3.572;2024-01-06T04:43:40;1;1;
54553;PMS5003;40450;55.848;-3.572;2024-01-06T04:45:54;1;1;
54553;PMS5003;40450;55.848;-3.572;2024-01-06T04:48:14;1;1;
54553;PMS5003;40450;55.848;-3.572;2024-01-06T04:50:44;0;0;
54553;PMS5003;40450;55.848;-3.572;2024-01-06T04:53:10;1;0;
54553;PMS5003;40450;55.848;-3.572;2024-01-06T04:55:35;1;0;
54553;PMS5003;40450;55.848;-3.572;2024-01-06T04:58:00;0;0;
54553;PMS5003;40450;55.848;-3.572;2024-01-06T05:00:28;1;1;
54553;PMS5003;40450;55.848;-3.572;2024-01-06T05:02:58;0;0;
54553;PMS5003;40450;55.848;-3.572;2024-01-06T05:05:16;0;0;
54553;PMS5003;40450;55.848;-3.572;2024-01-06T05:07:44;0;0;
54553;PMS5003;40450;55.848;-3.572;2024-01-06T05:10:09;5;4;
54553;PMS5003;40450;55.848;-3.572;2024-01-06T05:12:31;2;2;
54553;PMS5003;40450;55.848;-3.572;2024-01-06T05:14:57;1;0;
54553;PMS5003;40450;55.848;-3.572;2024-01-06T05:17:31;0;0;
54553;PMS5003;40450;55.848;-3.572;2024-01-06T05:19:42;0;0;
54553;PMS5003;40450;55.848;-3.572;2024-01-06T05:22:07;1;1;
54553;PMS5003;40450;55.848;-3.572;2024-01-06T05:24:38;0;0;
54553;PMS5003;40450;55.848;-3.572;2024-01-06T05:26:58;1;1;
54553;PMS5003;40450;55.848;-3.572;2024-01-06T05:29:28;0;0;
54553;PMS5003;40450;55.848;-3.572;2024-01-06T05:31:49;1;1;
54553;PMS5003;40450;55.848;-3.572;2024-01-06T05:34:14;1;1;
54553;PMS5003;40450;55.848;-3.572;2024-01-06T05:36:44;0;0;
54553;PMS5003;40450;55.848;-3.572;2024-01-06T05:39:12;0;0;
54553;PMS5003;40450;55.848;-3.572;2024-01-06T05:41:36;0;0;
54553;PMS5003;40450;55.848;-3.572;2024-01-06T05:43:55;0;0;
54553;PMS5003;40450;55.848;-3.572;2024-01-06T05:46:21;1;1;
54553;PMS5003;40450;55.848;-3.572;2024-01-06T05:48:52;1;1;
54553;PMS5003;40450;55.848;-3.572;2024-01-06T05:51:16;3;1;
54553;PMS5003;40450;55.848;-3.572;2024-01-06T05:53:44;0;0;
54553;PMS5003;40450;55.848;-3.572;2024-01-06T05:56:01;0;0;
54553;PMS5003;40450;55.848;-3.572;2024-01-06T05:58:27;1;1;
54553;PMS5003;40450;55.848;-3.572;2024-01-06T06:00:57;0;0;
54553;PMS5003;40450;55.848;-3.572;2024-01-06T06:03:17;1;1;
54553;PMS5003;40450;55.848;-3.572;2024-01-06T06:05:42;0;0;
54553;PMS5003;40450;55.848;-3.572;2024-01-06T06:08:08;1;1;
54553;PMS5003;40450;55.848;-3.572;2024-01-06T06:10:33;1;1;
54553;PMS5003;40450;55.848;-3.572;2024-01-06T06:12:58;1;1;
54553;PMS5003;40450;55.848;-3.572;2024-01-06T06:15:23;0;0;
54553;PMS5003;40450;55.848;-3.572;2024-01-06T06:17:50;1;1;
54553;PMS5003;40450;55.848;-3.572;2024-01-06T06:20:14;5;2;
54553;PMS5003;40450;55.848;-3.572;2024-01-06T06:22:48;1;1;
54553;PMS5003;40450;55.848;-3.572;2024-01-06T06:25:10;1;1;
54553;PMS5003;40450;55.848;-3.572;2024-01-06T06:29:56;1;1;
54553;PMS5003;40450;55.848;-3.572;2024-01-06T06:32:26;2;2;
54553;PMS5003;40450;55.848;-3.572;2024-01-06T06:34:46;2;1;
54553;PMS5003;40450;55.848;-3.572;2024-01-06T06:37:11;1;1;
54553;PMS5003;40450;55.848;-3.572;2024-01-06T06:39:36;1;1;
54553;PMS5003;40450;55.848;-3.572;2024-01-06T06:42:01;1;1;
54553;PMS5003;40450;55.848;-3.572;2024-01-06T06:44:27;5;2;
54553;PMS5003;40450;55.848;-3.572;2024-01-06T06:46:52;3;1;
54553;PMS5003;40450;55.848;-3.572;2024-01-06T06:49:22;1;1;
54553;PMS5003;40450;55.848;-3.572;2024-01-06T06:51:43;3;1;
54553;PMS5003;40450;55.848;-3.572;2024-01-06T06:54:08;2;2;
54553;PMS5003;40450;55.848;-3.572;2024-01-06T06:56:38;1;1;
54553;PMS5003;40450;55.848;-3.572;2024-01-06T06:59:10;2;2;
54553;PMS5003;40450;55.848;-3.572;2024-01-06T07:01:24;1;1;
54553;PMS5003;40450;55.848;-3.572;2024-01-06T07:03:54;2;2;
54553;PMS5003;40450;55.848;-3.572;2024-01-06T07:06:14;1;1;
54553;PMS5003;40450;55.848;-3.572;2024-01-06T07:08:39;2;2;
54553;PMS5003;40450;55.848;-3.572;2024-01-06T07:11:11;2;2;
54553;PMS5003;40450;55.848;-3.572;2024-01-06T07:13:35;3;3;
54553;PMS5003;40450;55.848;-3.572;2024-01-06T07:16:00;1;1;
54553;PMS5003;40450;55.848;-3.572;2024-01-06T07:18:21;3;1;
54553;PMS5003;40450;55.848;-3.572;2024-01-06T07:20:46;3;3;
54553;PMS5003;40450;55.848;-3.572;2024-01-06T07:23:11;3;3;
54553;PMS5003;40450;55.848;-3.572;2024-01-06T07:25:36;1;1;
54553;PMS5003;40450;55.848;-3.572;2024-01-06T07:28:10;2;2;
54553;PMS5003;40450;55.848;-3.572;2024-01-06T07:30:28;2;2;
54553;PMS5003;40450;55.848;-3.572;2024-01-06T07:32:52;4;3;
54553;PMS5003;40450;55.848;-3.572;2024-01-06T07:35:17;1;1;
54553;PMS5003;40450;55.848;-3.572;2024-01-06T07:37:43;1;1;
54553;PMS5003;40450;55.848;-3.572;2024-01-06T07:40:09;4;1;
54553;PMS5003;40450;55.848;-3.572;2024-01-06T07:42:33;1;1;
54553;PMS5003;40450;55.848;-3.572;2024-01-06T07:44:59;4;3;
54553;PMS5003;40450;55.848;-3.572;2024-01-06T07:47:24;1;1;
54553;PMS5003;40450;55.848;-3.572;2024-01-06T07:49:49;1;1;
54553;PMS5003;40450;55.848;-3.572;2024-01-06T07:52:15;2;1;
54553;PMS5003;40450;55.848;-3.572;2024-01-06T07:54:40;1;0;
54553;PMS5003;40450;55.848;-3.572;2024-01-06T07:57:05;0;0;
54553;PMS5003;40450;55.848;-3.572;2024-01-06T07:59:30;1;1;
54553;PMS5003;40450;55.848;-3.572;2024-01-06T08:01:55;1;1;
54553;PMS5003;40450;55.848;-3.572;2024-01-06T08:04:21;0;0;
54553;PMS5003;40450;55.848;-3.572;2024-01-06T08:06:48;1;1;
54553;PMS5003;40450;55.848;-3.572;2024-01-06T08:09:11;1;1;
54553;PMS5003;40450;55.848;-3.572;2024-01-06T08:11:37;1;1;
54553;PMS5003;40450;55.848;-3.572;2024-01-06T08:14:02;1;1;
54553;PMS5003;40450;55.848;-3.572;2024-01-06T08:16:27;2;2;
54553;PMS5003;40450;55.848;-3.572;2024-01-06T08:18:52;2;2;
54553;PMS5003;40450;55.848;-3.572;2024-01-06T08:21:17;6;5;
54553;PMS5003;40450;55.848;-3.572;2024-01-06T08:23:43;13;7;
54553;PMS5003;40450;55.848;-3.572;2024-01-06T08:26:15;4;4;
54553;PMS5003;40450;55.848;-3.572;2024-01-06T08:28:42;2;2;
54553;PMS5003;40450;55.848;-3.572;2024-01-06T08:31:04;7;3;
54553;PMS5003;40450;55.848;-3.572;2024-01-06T08:33:30;2;2;
54553;PMS5003;40450;55.848;-3.572;2024-01-06T08:35:50;4;3;
54553;PMS5003;40450;55.848;-3.572;2024-01-06T08:38:24;0;0;
54553;PMS5003;40450;55.848;-3.572;2024-01-06T08:40:46;2;2;
54553;PMS5003;40450;55.848;-3.572;2024-01-06T08:43:20;2;2;
54553;PMS5003;40450;55.848;-3.572;2024-01-06T08:45:36;1;1;
54553;PMS5003;40450;55.848;-3.572;2024-01-06T08:48:05;2;2;
54553;PMS5003;40450;55.848;-3.572;2024-01-06T08:50:32;1;0;
54553;PMS5003;40450;55.848;-3.572;2024-01-06T08:52:52;1;1;
54553;PMS5003;40450;55.848;-3.572;2024-01-06T08:55:18;0;0;
54553;PMS5003;40450;55.848;-3.572;2024-01-06T08:57:46;0;0;
54553;PMS5003;40450;55.848;-3.572;2024-01-06T09:00:08;1;1;
54553;PMS5003;40450;55.848;-3.572;2024-01-06T09:02:28;1;1;
54553;PMS5003;40450;55.848;-3.572;2024-01-06T09:05:08;2;1;
54553;PMS5003;40450;55.848;-3.572;2024-01-06T09:07:19;3;1;
54553;PMS5003;40450;55.848;-3.572;2024-01-06T09:09:49;0;0;
54553;PMS5003;40450;55.848;-3.572;2024-01-06T09:12:15;1;1;
54553;PMS5003;40450;55.848;-3.572;2024-01-06T09:14:40;1;1;
54553;PMS5003;40450;55.848;-3.572;2024-01-06T09:17:05;1;1;
54553;PMS5003;40450;55.848;-3.572;2024-01-06T09:19:25;3;2;
54553;PMS5003;40450;55.848;-3.572;2024-01-06T09:21:56;1;1;
54553;PMS5003;40450;55.848;-3.572;2024-01-06T09:24:21;1;1;
54553;PMS5003;40450;55.848;-3.572;2024-01-06T09:26:42;1;1;
54553;PMS5003;40450;55.848;-3.572;2024-01-06T09:29:14;1;1;
54553;PMS5003;40450;55.848;-3.572;2024-01-06T09:31:44;5;2;
54553;PMS5003;40450;55.848;-3.572;2024-01-06T09:34:07;1;1;
54553;PMS5003;40450;55.848;-3.572;2024-01-06T09:36:27;1;1;
54553;PMS5003;40450;55.848;-3.572;2024-01-06T09:38:48;2;2;
54553;PMS5003;40450;55.848;-3.572;2024-01-06T09:41:21;2;2;
54553;PMS5003;40450;55.848;-3.572;2024-01-06T09:43:40;3;2;
54553;PMS5003;40450;55.848;-3.572;2024-01-06T09:46:06;2;1;
54553;PMS5003;40450;55.848;-3.572;2024-01-06T09:48:29;1;1;
54553;PMS5003;40450;55.848;-3.572;2024-01-06T09:50:55;2;2;
54553;PMS5003;40450;55.848;-3.572;2024-01-06T09:53:20;1;1;
54553;PMS5003;40450;55.848;-3.572;2024-01-06T09:55:57;0;0;
54553;PMS5003;40450;55.848;-3.572;2024-01-06T09:58:17;2;2;
54553;PMS5003;40450;55.848;-3.572;2024-01-06T10:00:41;1;1;
54553;PMS5003;40450;55.848;-3.572;2024-01-06T10:03:15;3;2;
54553;PMS5003;40450;55.848;-3.572;2024-01-06T10:05:31;1;1;
54553;PMS5003;40450;55.848;-3.572;2024-01-06T10:07:52;1;1;
54553;PMS5003;40450;55.848;-3.572;2024-01-06T10:12:42;1;1;
54553;PMS5003;40450;55.848;-3.572;2024-01-06T10:15:13;3;3;
54553;PMS5003;40450;55.848;-3.572;2024-01-06T10:17:33;3;3;
54553;PMS5003;40450;55.848;-3.572;2024-01-06T10:20:07;4;3;
54553;PMS5003;40450;55.848;-3.572;2024-01-06T10:22:23;3;3;
54553;PMS5003;40450;55.848;-3.572;2024-01-06T10:24:49;3;3;
54553;PMS5003;40450;55.848;-3.572;2024-01-06T10:27:19;4;4;
54553;PMS5003;40450;55.848;-3.572;2024-01-06T10:29:44;4;3;
54553;PMS5003;40450;55.848;-3.572;2024-01-06T10:32:13;1;1;
54553;PMS5003;40450;55.848;-3.572;2024-01-06T10:34:35;1;1;
54553;PMS5003;40450;55.848;-3.572;2024-01-06T10:37:01;3;2;
54553;PMS5003;40450;55.848;-3.572;2024-01-06T10:39:21;2;2;
54553;PMS5003;40450;55.848;-3.572;2024-01-06T10:41:46;2;2;
54553;PMS5003;40450;55.848;-3.572;2024-01-06T10:44:11;2;2;
54553;PMS5003;40450;55.848;-3.572;2024-01-06T10:46:41;2;2;
54553;PMS5003;40450;55.848;-3.572;2024-01-06T10:49:01;1;1;
54553;PMS5003;40450;55.848;-3.572;2024-01-06T10:51:27;1;1;
54553;PMS5003;40450;55.848;-3.572;2024-01-06T10:53:52;2;2;
54553;PMS5003;40450;55.848;-3.572;2024-01-06T10:56:17;4;2;
54553;PMS5003;40450;55.848;-3.572;2024-01-06T10:58:49;2;2;
54553;PMS5003;40450;55.848;-3.572;2024-01-06T11:01:09;2;2;
54553;PMS5003;40450;55.848;-3.572;2024-01-06T11:03:41;5;3;
54553;PMS5003;40450;55.848;-3.572;2024-01-06T11:06:07;3;3;
54553;PMS5003;40450;55.848;-3.572;2024-01-06T11:08:24;2;2;
54553;PMS5003;40450;55.848;-3.572;2024-01-06T11:10:54;3;3;
54553;PMS5003;40450;55.848;-3.572;2024-01-06T11:13:21;2;2;
54553;PMS5003;40450;55.848;-3.572;2024-01-06T11:15:46;4;4;
54553;PMS5003;40450;55.848;-3.572;2024-01-06T11:20:39;5;4;
54553;PMS5003;40450;55.848;-3.572;2024-01-06T11:25:27;6;4;
54553;PMS5003;40450;55.848;-3.572;2024-01-06T11:27:48;6;4;
54553;PMS5003;40450;55.848;-3.572;2024-01-06T11:30:19;5;4;
54553;PMS5003;40450;55.848;-3.572;2024-01-06T11:32:39;4;4;
54553;PMS5003;40450;55.848;-3.572;2024-01-06T11:35:11;4;4;
54553;PMS5003;40450;55.848;-3.572;2024-01-06T11:37:50;6;6;
54553;PMS5003;40450;55.848;-3.572;2024-01-06T11:39:55;6;6;
54553;PMS5003;40450;55.848;-3.572;2024-01-06T11:42:31;6;5;
54553;PMS5003;40450;55.848;-3.572;2024-01-06T11:44:49;5;5;
54553;PMS5003;40450;55.848;-3.572;2024-01-06T11:47:10;5;5;
54553;PMS5003;40450;55.848;-3.572;2024-01-06T11:49:43;5;5;
54553;PMS5003;40450;55.848;-3.572;2024-01-06T11:52:14;3;1;
54553;PMS5003;40450;55.848;-3.572;2024-01-06T11:54:30;3;2;
54553;PMS5003;40450;55.848;-3.572;2024-01-06T11:57:24;3;3;
54553;PMS5003;40450;55.848;-3.572;2024-01-06T11:59:21;5;5;
54553;PMS5003;40450;55.848;-3.572;2024-01-06T12:01:41;4;4;
54553;PMS5003;40450;55.848;-3.572;2024-01-06T12:04:06;8;4;
54553;PMS5003;40450;55.848;-3.572;2024-01-06T12:06:32;4;4;
54553;PMS5003;40450;55.848;-3.572;2024-01-06T12:11:32;4;4;
54553;PMS5003;40450;55.848;-3.572;2024-01-06T12:13:52;3;3;
54553;PMS5003;40450;55.848;-3.572;2024-01-06T12:16:18;6;6;
54553;PMS5003;40450;55.848;-3.572;2024-01-06T12:18:46;6;4;
54553;PMS5003;40450;55.848;-3.572;2024-01-06T12:21:08;6;6;
54553;PMS5003;40450;55.848;-3.572;2024-01-06T12:23:34;7;5;
54553;PMS5003;40450;55.848;-3.572;2024-01-06T12:26:02;7;7;
54553;PMS5003;40450;55.848;-3.572;2024-01-06T12:28:27;5;5;
54553;PMS5003;40450;55.848;-3.572;2024-01-06T12:30:45;3;3;
54553;PMS5003;40450;55.848;-3.572;2024-01-06T12:33:15;3;3;
54553;PMS5003;40450;55.848;-3.572;2024-01-06T12:35:40;2;2;
54553;PMS5003;40450;55.848;-3.572;2024-01-06T12:38:08;5;4;
54553;PMS5003;40450;55.848;-3.572;2024-01-06T12:40:31;6;3;
54553;PMS5003;40450;55.848;-3.572;2024-01-06T12:42:59;3;3;
54553;PMS5003;40450;55.848;-3.572;2024-01-06T12:45:17;3;3;
54553;PMS5003;40450;55.848;-3.572;2024-01-06T12:47:42;4;4;
54553;PMS5003;40450;55.848;-3.572;2024-01-06T12:50:12;6;5;
54553;PMS5003;40450;55.848;-3.572;2024-01-06T12:52:38;6;6;
54553;PMS5003;40450;55.848;-3.572;2024-01-06T12:55:12;6;5;
54553;PMS5003;40450;55.848;-3.572;2024-01-06T12:57:31;5;5;
54553;PMS5003;40450;55.848;-3.572;2024-01-06T12:59:49;2;2;
54553;PMS5003;40450;55.848;-3.572;2024-01-06T13:02:23;8;6;
54553;PMS5003;40450;55.848;-3.572;2024-01-06T13:04:39;7;6;
54553;PMS5003;40450;55.848;-3.572;2024-01-06T13:07:05;3;3;
54553;PMS5003;40450;55.848;-3.572;2024-01-06T13:09:30;2;2;
54553;PMS5003;40450;55.848;-3.572;2024-01-06T13:11:55;3;3;
54553;PMS5003;40450;55.848;-3.572;2024-01-06T13:14:20;2;2;
54553;PMS5003;40450;55.848;-3.572;2024-01-06T13:16:46;5;3;
54553;PMS5003;40450;55.848;-3.572;2024-01-06T13:19:11;4;2;
54553;PMS5003;40450;55.848;-3.572;2024-01-06T13:21:36;3;3;
54553;PMS5003;40450;55.848;-3.572;2024-01-06T13:24:01;5;3;
54553;PMS5003;40450;55.848;-3.572;2024-01-06T13:26:27;4;2;
54553;PMS5003;40450;55.848;-3.572;2024-01-06T13:28:52;4;4;
54553;PMS5003;40450;55.848;-3.572;2024-01-06T13:31:17;4;4;
54553;PMS5003;40450;55.848;-3.572;2024-01-06T13:33:47;4;4;
54553;PMS5003;40450;55.848;-3.572;2024-01-06T13:36:08;4;2;
54553;PMS5003;40450;55.848;-3.572;2024-01-06T13:38:33;5;4;
54553;PMS5003;40450;55.848;-3.572;2024-01-06T13:40:58;2;2;
54553;PMS5003;40450;55.848;-3.572;2024-01-06T13:43:23;4;4;
54553;PMS5003;40450;55.848;-3.572;2024-01-06T13:45:49;5;4;
54553;PMS5003;40450;55.848;-3.572;2024-01-06T13:48:14;3;3;
54553;PMS5003;40450;55.848;-3.572;2024-01-06T13:50:39;5;5;
54553;PMS5003;40450;55.848;-3.572;2024-01-06T13:53:05;4;4;
54553;PMS5003;40450;55.848;-3.572;2024-01-06T13:55:30;5;5;
54553;PMS5003;40450;55.848;-3.572;2024-01-06T13:57:55;10;9;
54553;PMS5003;40450;55.848;-3.572;2024-01-06T14:00:21;8;6;
54553;PMS5003;40450;55.848;-3.572;2024-01-06T14:02:46;10;9;
54553;PMS5003;40450;55.848;-3.572;2024-01-06T14:05:11;9;6;
54553;PMS5003;40450;55.848;-3.572;2024-01-06T14:07:37;10;10;
54553;PMS5003;40450;55.848;-3.572;2024-01-06T14:10:02;5;5;
54553;PMS5003;40450;55.848;-3.572;2024-01-06T14:12:27;6;4;
54553;PMS5003;40450;55.848;-3.572;2024-01-06T14:14:53;3;3;
54553;PMS5003;40450;55.848;-3.572;2024-01-06T14:17:18;9;8;
54553;PMS5003;40450;55.848;-3.572;2024-01-06T14:19:43;17;16;
54553;PMS5003;40450;55.848;-3.572;2024-01-06T14:22:10;17;16;
54553;PMS5003;40450;55.848;-3.572;2024-01-06T14:24:34;21;19;
54553;PMS5003;40450;55.848;-3.572;2024-01-06T14:27:00;14;13;
54553;PMS5003;40450;55.848;-3.572;2024-01-06T14:29:26;12;11;
54553;PMS5003;40450;55.848;-3.572;2024-01-06T14:31:52;14;13;
54553;PMS5003;40450;55.848;-3.572;2024-01-06T14:34:17;8;8;
54553;PMS5003;40450;55.848;-3.572;2024-01-06T14:36:43;9;8;
54553;PMS5003;40450;55.848;-3.572;2024-01-06T14:39:08;4;4;
54553;PMS5003;40450;55.848;-3.572;2024-01-06T14:41:33;3;3;
54553;PMS5003;40450;55.848;-3.572;2024-01-06T14:43:58;4;4;
54553;PMS5003;40450;55.848;-3.572;2024-01-06T14:46:24;4;4;
54553;PMS5003;40450;55.848;-3.572;2024-01-06T14:48:49;3;3;
54553;PMS5003;40450;55.848;-3.572;2024-01-06T14:51:14;5;5;
54553;PMS5003;40450;55.848;-3.572;2024-01-06T14:53:40;5;3;
54553;PMS5003;40450;55.848;-3.572;2024-01-06T14:56:05;4;4;
54553;PMS5003;40450;55.848;-3.572;2024-01-06T14:58:31;4;4;
54553;PMS5003;40450;55.848;-3.572;2024-01-06T15:00:56;6;6;
54553;PMS5003;40450;55.848;-3.572;2024-01-06T15:03:21;5;5;
54553;PMS5003;40450;55.848;-3.572;2024-01-06T15:05:47;11;11;
54553;PMS5003;40450;55.848;-3.572;2024-01-06T15:08:12;9;7;
54553;PMS5003;40450;55.848;-3.572;2024-01-06T15:10:38;8;7;
54553;PMS5003;40450;55.848;-3.572;2024-01-06T15:13:03;7;5;
54553;PMS5003;40450;55.848;-3.572;2024-01-06T15:15:29;5;5;
54553;PMS5003;40450;55.848;-3.572;2024-01-06T15:17:54;4;4;
54553;PMS5003;40450;55.848;-3.572;2024-01-06T15:20:20;8;7;
54553;PMS5003;40450;55.848;-3.572;2024-01-06T15:22:45;4;4;
54553;PMS5003;40450;55.848;-3.572;2024-01-06T15:25:11;3;3;
54553;PMS5003;40450;55.848;-3.572;2024-01-06T15:27:36;5;5;
54553;PMS5003;40450;55.848;-3.572;2024-01-06T15:30:01;5;5;
54553;PMS5003;40450;55.848;-3.572;2024-01-06T15:32:26;7;7;
54553;PMS5003;40450;55.848;-3.572;2024-01-06T15:34:52;8;6;
54553;PMS5003;40450;55.848;-3.572;2024-01-06T15:37:17;5;4;
54553;PMS5003;40450;55.848;-3.572;2024-01-06T15:39:42;2;2;
54553;PMS5003;40450;55.848;-3.572;2024-01-06T15:42:07;4;4;
54553;PMS5003;40450;55.848;-3.572;2024-01-06T15:44:33;5;4;
54553;PMS5003;40450;55.848;-3.572;2024-01-06T15:46:58;5;5;
54553;PMS5003;40450;55.848;-3.572;2024-01-06T15:49:23;9;7;
54553;PMS5003;40450;55.848;-3.572;2024-01-06T15:51:49;4;4;
54553;PMS5003;40450;55.848;-3.572;2024-01-06T15:54:14;4;4;
54553;PMS5003;40450;55.848;-3.572;2024-01-06T15:56:40;3;3;
54553;PMS5003;40450;55.848;-3.572;2024-01-06T15:59:05;5;4;
54553;PMS5003;40450;55.848;-3.572;2024-01-06T16:01:30;7;3;
54553;PMS5003;40450;55.848;-3.572;2024-01-06T16:03:55;3;3;
54553;PMS5003;40450;55.848;-3.572;2024-01-06T16:06:22;4;3;
54553;PMS5003;40450;55.848;-3.572;2024-01-06T16:08:47;5;5;
54553;PMS5003;40450;55.848;-3.572;2024-01-06T16:11:11;4;4;
54553;PMS5003;40450;55.848;-3.572;2024-01-06T16:13:42;3;3;
54553;PMS5003;40450;55.848;-3.572;2024-01-06T16:16:10;4;2;
54553;PMS5003;40450;55.848;-3.572;2024-01-06T16:18:27;5;3;
54553;PMS5003;40450;55.848;-3.572;2024-01-06T16:20:57;5;5;
54553;PMS5003;40450;55.848;-3.572;2024-01-06T16:23:18;4;4;
54553;PMS5003;40450;55.848;-3.572;2024-01-06T16:25:43;4;4;
54553;PMS5003;40450;55.848;-3.572;2024-01-06T16:28:13;3;3;
54553;PMS5003;40450;55.848;-3.572;2024-01-06T16:33:04;12;9;
54553;PMS5003;40450;55.848;-3.572;2024-01-06T16:35:32;7;7;
54553;PMS5003;40450;55.848;-3.572;2024-01-06T16:37:50;40;33;
54553;PMS5003;40450;55.848;-3.572;2024-01-06T16:40:16;32;28;